Hampton, Canada
Current Conditions -  °F | °C
As of 5:00 PM on Tuesday 27 Jan 2015 (Local Time) from CYSJ Reporting Station
Light Snow Light Snow  
Wind Chill: -2°   Ceiling: 1000
Heat Index: 18°   Visibility: 1mi
Dew Point: 14°   Wind: 29mph
Humidity: 86%   Direction: 40°NE
Pressure: 29.55"   Gusts: 39mph
Location:  45.53°N, 65.83°W
Report Text: CYSJ 272100Z 04025G34KT 1SM R05/P6000FT/N -SN DRSN OVC010 M08/M10 A2955 RMK SF8 SLP015
Loading
Personal Weather Stations






























Interactive Weather Map New forecast layout! Learn more

10-Day Weather Forecast

Advertisements
Track Severe Weather on mobile